Time;durP1;ratioP1;P1;durP2;ratioP2;P2;SDS_P1;SDS_P2;PMS_P1;PMS_P2;Temp;Humidity;BMP_temperature;BMP_pressure;BME280_temperature;BME280_humidity;BME280_pressure;Samples;Min_cycle;Max_cycle;Signal;HPM_P1;HPM_P2
2020/12/06 00:01:43;;;;;;;11.02;6.07;;;4.10;83.80;;;;;;5008271;28;20105;-87
2020/12/06 00:04:10;;;;;;;9.00;5.72;;;4.10;83.80;;;;;;5020511;28;20104;-89
2020/12/06 00:06:37;;;;;;;11.75;6.40;;;4.00;83.90;;;;;;5007447;28;20030;-90
2020/12/06 00:09:06;;;;;;;9.68;6.28;;;4.00;83.90;;;;;;4996829;28;20046;-90
2020/12/06 00:11:32;;;;;;;10.68;6.43;;;4.00;84.00;;;;;;4997534;28;20054;-90
2020/12/06 00:13:58;;;;;;;9.77;5.70;;;4.10;84.00;;;;;;4998376;28;20093;-91
2020/12/06 00:16:23;;;;;;;9.57;5.82;;;4.00;83.90;;;;;;5004985;28;20159;-90
2020/12/06 00:18:49;;;;;;;11.88;6.93;;;4.10;84.00;;;;;;4999623;28;20057;-90
2020/12/06 00:21:17;;;;;;;9.55;6.05;;;4.10;84.00;;;;;;4965366;28;20397;-90
2020/12/06 00:23:44;;;;;;;11.00;6.20;;;4.10;84.10;;;;;;5016386;28;20018;-90
2020/12/06 00:26:10;;;;;;;11.27;6.55;;;4.00;84.00;;;;;;4998209;28;20483;-88
2020/12/06 00:28:36;;;;;;;8.52;5.85;;;4.10;84.10;;;;;;4999452;28;20173;-88
2020/12/06 00:31:02;;;;;;;9.63;5.72;;;4.00;84.10;;;;;;5006795;28;20038;-88
2020/12/06 00:33:28;;;;;;;10.40;7.28;;;4.00;84.10;;;;;;4992658;28;20018;-88
2020/12/06 00:35:54;;;;;;;9.38;6.10;;;4.00;84.20;;;;;;5014463;28;20019;-88
2020/12/06 00:38:20;;;;;;;9.45;6.03;;;3.90;84.10;;;;;;4990136;28;20597;-88
2020/12/06 00:40:46;;;;;;;12.55;7.00;;;3.90;84.20;;;;;;4986264;28;20133;-88
2020/12/06 00:43:11;;;;;;;9.23;6.10;;;3.90;84.10;;;;;;4981361;28;20065;-88
2020/12/06 00:45:38;;;;;;;10.82;6.25;;;3.90;84.20;;;;;;4996588;28;20034;-89
2020/12/06 00:48:04;;;;;;;10.68;6.50;;;3.90;84.30;;;;;;5010634;28;20037;-90
2020/12/06 00:50:30;;;;;;;10.80;6.88;;;3.90;84.40;;;;;;4995532;28;20034;-90
2020/12/06 00:52:55;;;;;;;11.25;7.05;;;3.90;84.40;;;;;;4998195;28;20029;-90
2020/12/06 00:55:21;;;;;;;9.77;6.32;;;3.90;84.50;;;;;;4989270;28;20035;-88
2020/12/06 00:57:47;;;;;;;13.23;7.35;;;3.90;84.50;;;;;;4978259;28;20045;-88
2020/12/06 01:00:13;;;;;;;12.23;6.95;;;3.90;84.50;;;;;;4985113;28;20053;-89
2020/12/06 01:02:46;;;;;;;11.07;6.20;;;3.80;84.50;;;;;;4985361;28;20022;-88
2020/12/06 01:05:13;;;;;;;11.27;6.63;;;3.80;84.50;;;;;;4977715;28;20054;-88
2020/12/06 01:07:41;;;;;;;11.63;6.10;;;3.90;84.60;;;;;;4978202;28;20042;-88
2020/12/06 01:10:10;;;;;;;10.95;6.00;;;3.80;84.60;;;;;;4996305;28;20018;-88
2020/12/06 01:12:39;;;;;;;12.85;6.95;;;3.90;84.70;;;;;;5010737;28;20113;-88
2020/12/06 01:15:07;;;;;;;12.27;6.72;;;3.80;84.70;;;;;;4995883;28;20379;-89
2020/12/06 01:17:33;;;;;;;11.68;6.72;;;3.80;84.70;;;;;;5005673;28;20033;-88
2020/12/06 01:19:59;;;;;;;12.82;7.03;;;3.80;84.80;;;;;;5001848;28;20022;-90
2020/12/06 01:22:25;;;;;;;9.35;6.15;;;3.80;84.80;;;;;;5006611;28;20113;-89
2020/12/06 01:24:51;;;;;;;11.32;6.43;;;3.80;84.80;;;;;;5008759;28;20114;-91
2020/12/06 01:27:16;;;;;;;9.45;6.30;;;3.80;84.80;;;;;;4990036;28;20045;-90
2020/12/06 01:29:43;;;;;;;11.02;6.40;;;3.80;84.90;;;;;;4984040;28;20027;-90
2020/12/06 01:32:08;;;;;;;10.52;6.38;;;3.80;84.90;;;;;;4999549;28;20026;-90
2020/12/06 01:34:34;;;;;;;9.50;6.47;;;3.80;84.90;;;;;;4982351;28;20018;-89
2020/12/06 01:37:00;;;;;;;10.90;6.50;;;3.80;85.00;;;;;;4989718;28;20488;-90
2020/12/06 01:39:28;;;;;;;11.13;6.47;;;3.70;84.90;;;;;;5015674;28;20080;-90
2020/12/06 01:41:55;;;;;;;11.27;7.45;;;3.80;84.90;;;;;;5001497;28;20124;-90
2020/12/06 01:44:28;;;;;;;10.50;6.68;;;3.80;84.90;;;;;;4999668;28;20030;-90
2020/12/06 01:46:55;;;;;;;11.25;6.65;;;3.70;84.90;;;;;;5007133;28;20099;-90
2020/12/06 01:49:22;;;;;;;11.27;6.57;;;3.70;85.00;;;;;;4997474;28;20019;-90
2020/12/06 01:51:54;;;;;;;11.48;6.68;;;3.70;85.00;;;;;;4982878;28;20026;-90
2020/12/06 01:54:20;;;;;;;9.35;5.88;;;3.70;85.10;;;;;;5010769;28;20117;-90
2020/12/06 01:56:45;;;;;;;9.30;5.63;;;3.70;85.10;;;;;;4985015;28;20049;-90
2020/12/06 01:59:11;;;;;;;9.77;6.18;;;3.70;85.10;;;;;;4994442;28;20034;-90
2020/12/06 02:01:39;;;;;;;9.68;6.20;;;3.70;85.10;;;;;;4979532;28;20022;-90
2020/12/06 02:04:12;;;;;;;10.35;6.18;;;3.70;85.20;;;;;;4991671;23;20081;-90
2020/12/06 02:06:38;;;;;;;9.10;6.00;;;3.70;85.20;;;;;;4994027;28;20041;-90
2020/12/06 02:09:06;;;;;;;11.05;6.55;;;3.70;85.30;;;;;;4978028;28;20475;-90
2020/12/06 02:11:32;;;;;;;10.70;6.78;;;3.70;85.30;;;;;;4974536;28;20069;-90
2020/12/06 02:13:59;;;;;;;9.45;6.22;;;3.70;85.40;;;;;;4966982;28;20046;-91
2020/12/06 02:16:25;;;;;;;10.00;6.03;;;3.70;85.40;;;;;;4991359;28;20018;-90
2020/12/06 02:18:52;;;;;;;10.23;6.18;;;3.70;85.50;;;;;;4981955;28;20129;-90
2020/12/06 02:21:18;;;;;;;9.77;6.80;;;3.60;85.50;;;;;;4999760;28;20022;-90
2020/12/06 02:23:44;;;;;;;9.90;5.82;;;3.70;85.50;;;;;;4983668;28;20558;-90
2020/12/06 02:26:10;;;;;;;8.82;5.65;;;3.60;85.50;;;;;;4973462;28;20034;-90
2020/12/06 02:28:35;;;;;;;9.70;6.03;;;3.70;85.60;;;;;;4961700;28;20026;-90
2020/12/06 02:31:01;;;;;;;9.05;5.97;;;3.70;85.60;;;;;;4957427;28;20185;-91
2020/12/06 02:33:27;;;;;;;9.15;5.60;;;3.60;85.60;;;;;;5001574;28;20054;-90
2020/12/06 02:35:53;;;;;;;10.27;6.35;;;3.60;85.60;;;;;;4982004;28;20461;-90
2020/12/06 02:38:19;;;;;;;10.10;6.57;;;3.60;85.60;;;;;;4992571;28;20498;-93
2020/12/06 02:40:45;;;;;;;8.68;5.93;;;3.60;85.70;;;;;;4974196;28;20034;-90
2020/12/06 02:43:11;;;;;;;9.75;6.40;;;3.70;85.80;;;;;;4980615;28;20033;-90
2020/12/06 02:45:37;;;;;;;11.52;5.93;;;3.60;85.80;;;;;;4976807;28;20027;-89
2020/12/06 02:48:02;;;;;;;8.65;5.55;;;3.60;85.80;;;;;;5007440;28;20041;-90
2020/12/06 02:50:28;;;;;;;9.68;6.10;;;3.60;85.80;;;;;;4977108;28;20057;-90
2020/12/06 02:52:57;;;;;;;9.90;5.90;;;3.60;85.80;;;;;;4963067;28;20034;-90
2020/12/06 02:55:27;;;;;;;11.70;6.20;;;3.70;85.80;;;;;;4977558;28;20081;-90
2020/12/06 02:57:53;;;;;;;9.32;6.05;;;3.60;85.80;;;;;;4992171;28;20022;-90
2020/12/06 03:00:19;;;;;;;10.05;6.20;;;3.60;85.80;;;;;;4998541;28;20491;-90
2020/12/06 03:02:44;;;;;;;10.18;6.70;;;3.60;85.80;;;;;;5003317;28;20050;-88
2020/12/06 03:05:11;;;;;;;10.73;6.32;;;3.60;85.80;;;;;;4960532;28;20500;-87
2020/12/06 03:07:36;;;;;;;10.20;5.78;;;3.60;85.80;;;;;;5003302;28;20490;-87
2020/12/06 03:10:06;;;;;;;10.45;6.22;;;3.60;85.80;;;;;;4965634;28;20018;-87
2020/12/06 03:12:35;;;;;;;11.98;6.60;;;3.70;86.00;;;;;;5003618;28;20363;-88
2020/12/06 03:15:02;;;;;;;10.50;6.03;;;3.60;85.90;;;;;;4964671;28;20038;-90
2020/12/06 03:17:33;;;;;;;10.23;6.20;;;3.60;85.90;;;;;;4977300;28;20031;-89
2020/12/06 03:19:59;;;;;;;9.20;5.90;;;3.60;85.90;;;;;;4992066;28;20033;-89
2020/12/06 03:22:25;;;;;;;10.32;6.47;;;3.60;86.00;;;;;;4975879;28;20498;-89
2020/12/06 03:24:50;;;;;;;9.82;6.45;;;3.50;85.90;;;;;;4972346;28;20035;-89
2020/12/06 03:27:16;;;;;;;10.63;6.32;;;3.60;86.00;;;;;;4950167;28;20038;-88
2020/12/06 03:29:42;;;;;;;9.98;6.55;;;3.60;86.00;;;;;;4991762;28;20114;-88
2020/12/06 03:32:07;;;;;;;9.40;5.55;;;3.60;86.10;;;;;;4976734;28;20057;-88
2020/12/06 03:34:33;;;;;;;9.75;5.95;;;3.60;86.10;;;;;;4978425;28;20042;-89
2020/12/06 03:36:59;;;;;;;10.40;6.65;;;3.50;86.00;;;;;;4959870;28;20034;-88
2020/12/06 03:39:24;;;;;;;10.23;6.60;;;3.50;86.10;;;;;;4977632;28;20030;-88
2020/12/06 03:41:50;;;;;;;10.63;7.00;;;3.60;86.20;;;;;;4995834;28;20038;-88
2020/12/06 03:44:16;;;;;;;11.25;6.82;;;3.50;86.10;;;;;;4978745;28;20110;-89
2020/12/06 03:46:42;;;;;;;10.77;6.72;;;3.50;86.20;;;;;;4980274;28;20400;-89
2020/12/06 03:49:07;;;;;;;11.23;6.82;;;3.50;86.30;;;;;;4980073;28;20826;-88
2020/12/06 03:51:34;;;;;;;10.27;6.63;;;3.50;86.90;;;;;;4993358;28;20030;-88
2020/12/06 03:53:59;;;;;;;10.45;6.50;;;3.50;86.40;;;;;;4980432;28;20022;-90
2020/12/06 03:56:25;;;;;;;10.57;6.50;;;3.50;86.40;;;;;;4980142;28;20510;-91
2020/12/06 03:58:51;;;;;;;9.68;6.43;;;3.50;86.50;;;;;;4964298;28;20034;-90
2020/12/06 04:01:18;;;;;;;10.70;6.78;;;3.50;86.40;;;;;;4980035;28;20506;-90
2020/12/06 04:03:44;;;;;;;10.15;6.22;;;3.50;86.50;;;;;;4972702;28;20023;-90
2020/12/06 04:06:09;;;;;;;10.85;6.82;;;3.60;86.60;;;;;;4982908;28;20097;-91
2020/12/06 04:08:35;;;;;;;11.60;7.72;;;3.60;86.60;;;;;;4981418;28;20022;-86
2020/12/06 04:11:01;;;;;;;10.13;6.65;;;3.60;86.60;;;;;;4983006;28;20034;-86
2020/12/06 04:13:28;;;;;;;10.68;6.32;;;3.60;86.60;;;;;;4997605;28;20023;-86
2020/12/06 04:15:53;;;;;;;10.02;6.53;;;3.60;86.70;;;;;;4975843;28;20035;-88
2020/12/06 04:18:19;;;;;;;11.50;7.40;;;3.60;86.70;;;;;;4991372;28;20033;-88
2020/12/06 04:20:45;;;;;;;12.27;7.15;;;3.60;86.80;;;;;;4981000;28;20476;-89
2020/12/06 04:23:11;;;;;;;12.57;8.30;;;3.60;86.80;;;;;;4982899;28;20026;-89
2020/12/06 04:25:37;;;;;;;10.05;6.85;;;3.60;86.80;;;;;;5011315;28;20499;-89
2020/12/06 04:28:02;;;;;;;10.65;7.57;;;3.60;86.90;;;;;;4980333;28;20038;-88
2020/12/06 04:30:28;;;;;;;9.30;6.53;;;3.60;86.90;;;;;;4996102;28;20541;-88
2020/12/06 04:32:54;;;;;;;11.02;6.72;;;3.60;86.90;;;;;;4976308;28;20042;-88
2020/12/06 04:35:19;;;;;;;10.35;6.97;;;3.60;86.90;;;;;;4990098;28;20023;-88
2020/12/06 04:37:45;;;;;;;10.45;6.78;;;3.60;87.00;;;;;;4976141;28;20130;-87
2020/12/06 04:40:11;;;;;;;10.23;6.50;;;3.60;87.00;;;;;;4968777;28;20042;-88
2020/12/06 04:42:37;;;;;;;12.40;8.50;;;3.60;87.00;;;;;;4992966;28;20047;-90
2020/12/06 04:45:03;;;;;;;9.63;6.55;;;3.60;87.00;;;;;;5000772;28;20030;-89
2020/12/06 04:47:54;;;;;;;10.25;6.65;;;3.60;87.10;;;;;;4998629;28;20464;-90
2020/12/06 04:50:46;;;;;;;10.63;6.88;;;3.60;87.10;;;;;;5013940;28;20034;-89
2020/12/06 04:53:20;;;;;;;9.45;6.47;;;3.60;87.10;;;;;;4998780;28;20095;-92
2020/12/06 04:55:46;;;;;;;10.68;6.63;;;3.60;87.10;;;;;;5004747;28;20042;-92
2020/12/06 04:58:19;;;;;;;10.63;6.68;;;3.60;87.10;;;;;;4986465;28;20498;-92
2020/12/06 05:00:45;;;;;;;10.52;6.80;;;3.70;87.20;;;;;;4995419;28;20035;-93
2020/12/06 05:03:15;;;;;;;11.45;7.32;;;3.60;87.20;;;;;;5012107;28;20121;-92
2020/12/06 05:05:43;;;;;;;10.02;6.97;;;3.60;87.20;;;;;;4979283;28;20042;-93
2020/12/06 05:08:11;;;;;;;11.88;7.00;;;3.70;87.30;;;;;;5000242;28;20051;-92
2020/12/06 05:10:46;;;;;;;13.57;8.10;;;3.70;87.30;;;;;;4982936;28;20431;-92
2020/12/06 05:13:13;;;;;;;12.70;7.40;;;3.70;87.30;;;;;;4996474;28;20023;-93
2020/12/06 05:15:38;;;;;;;11.13;6.78;;;3.60;87.30;;;;;;4982154;28;20085;-92
2020/12/06 05:18:07;;;;;;;12.23;7.60;;;3.70;87.40;;;;;;4992062;28;20022;-91
2020/12/06 05:20:34;;;;;;;12.93;7.55;;;3.70;87.40;;;;;;4997820;28;20022;-93
2020/12/06 05:23:00;;;;;;;12.32;6.90;;;3.70;87.40;;;;;;4970874;28;20061;-93
2020/12/06 05:25:26;;;;;;;11.43;7.28;;;3.60;87.30;;;;;;4975885;28;20026;-92
2020/12/06 05:27:52;;;;;;;11.77;7.32;;;3.60;87.30;;;;;;5004073;28;20089;-92
2020/12/06 05:30:19;;;;;;;10.85;6.93;;;3.70;87.40;;;;;;4989653;28;20053;-89
2020/12/06 05:32:45;;;;;;;10.38;7.22;;;3.70;87.40;;;;;;4981952;28;20022;-89
2020/12/06 05:35:12;;;;;;;10.55;6.95;;;3.70;87.40;;;;;;4982979;28;20027;-90
2020/12/06 05:37:39;;;;;;;9.25;6.43;;;3.70;87.40;;;;;;4977011;28;20026;-89
2020/12/06 05:40:10;;;;;;;11.13;7.53;;;3.70;87.40;;;;;;4994994;28;20089;-88
2020/12/06 05:42:39;;;;;;;;;;;3.70;87.40;;;;;;4995383;28;20114;-88
2020/12/06 05:45:05;;;;;;;10.02;6.63;;;3.70;87.30;;;;;;5011587;28;20303;-88
2020/12/06 05:47:31;;;;;;;12.85;6.85;;;3.70;87.30;;;;;;4980566;28;20058;-88
2020/12/06 05:49:58;;;;;;;13.63;7.78;;;3.60;87.30;;;;;;4994558;28;20030;-87
2020/12/06 05:52:34;;;;;;;11.05;6.97;;;3.70;87.40;;;;;;5010920;28;20169;-88
2020/12/06 05:55:01;;;;;;;10.98;6.55;;;3.70;87.40;;;;;;4984618;28;20033;-88
2020/12/06 05:57:29;;;;;;;11.52;6.65;;;3.70;87.40;;;;;;4985772;28;20055;-88
2020/12/06 05:59:55;;;;;;;11.35;6.97;;;3.60;87.50;;;;;;4994854;28;20037;-88
2020/12/06 06:02:23;;;;;;;10.75;6.65;;;3.70;87.50;;;;;;4991259;28;20559;-89
2020/12/06 06:04:50;;;;;;;10.90;7.72;;;3.60;87.50;;;;;;4999840;28;20065;-89
2020/12/06 06:07:21;;;;;;;11.30;7.10;;;3.70;87.50;;;;;;4978933;28;20030;-89
2020/12/06 06:09:53;;;;;;;;;;;3.70;87.50;;;;;;4980677;28;20062;-89
2020/12/06 06:12:27;;;;;;;10.00;6.57;;;3.70;87.50;;;;;;5001810;28;20256;-89
2020/12/06 06:14:56;;;;;;;9.38;6.53;;;3.70;87.40;;;;;;4999281;28;20050;-89
2020/12/06 06:17:25;;;;;;;10.98;6.70;;;3.70;87.50;;;;;;4984322;28;20084;-89
2020/12/06 06:19:51;;;;;;;12.88;7.38;;;3.70;87.50;;;;;;4993317;28;20038;-88
2020/12/06 06:22:23;;;;;;;11.68;7.60;;;3.70;87.50;;;;;;4961292;28;20480;-89
2020/12/06 06:24:49;;;;;;;11.05;6.97;;;3.70;87.60;;;;;;4979978;28;20495;-89
2020/12/06 06:27:16;;;;;;;13.32;8.43;;;3.80;87.60;;;;;;4960995;28;20034;-89
2020/12/06 06:29:43;;;;;;;11.38;7.47;;;3.70;87.60;;;;;;4993409;28;20033;-89
2020/12/06 06:32:10;;;;;;;13.23;8.40;;;3.70;87.60;;;;;;4989890;28;20053;-89
2020/12/06 06:34:38;;;;;;;12.68;8.27;;;3.70;87.60;;;;;;4968319;28;20117;-89
2020/12/06 06:37:17;;;;;;;13.90;9.07;;;3.70;87.60;;;;;;4986711;28;20061;-89
2020/12/06 06:39:43;;;;;;;12.90;8.52;;;3.70;87.60;;;;;;4991328;28;20035;-88
2020/12/06 06:42:12;;;;;;;15.43;9.40;;;3.70;87.60;;;;;;4996076;28;20044;-88
2020/12/06 06:44:40;;;;;;;14.15;9.20;;;3.70;87.60;;;;;;4977971;28;20046;-89
2020/12/06 06:47:07;;;;;;;14.43;8.63;;;3.70;87.60;;;;;;4993263;28;20026;-89
2020/12/06 06:49:48;;;;;;;14.13;8.60;;;3.80;87.70;;;;;;4996151;28;20303;-89
2020/12/06 06:52:20;;;;;;;16.23;9.57;;;3.70;87.70;;;;;;4992337;28;20030;-89
2020/12/06 06:54:51;;;;;;;13.43;8.70;;;3.80;87.80;;;;;;4985772;28;20030;-89
2020/12/06 06:57:19;;;;;;;12.35;7.88;;;3.80;87.80;;;;;;4994731;28;20022;-90
2020/12/06 06:59:49;;;;;;;14.32;8.73;;;3.80;87.90;;;;;;4977296;28;20107;-90
2020/12/06 07:02:25;;;;;;;13.20;7.93;;;3.80;87.90;;;;;;4990813;28;20053;-89
2020/12/06 07:05:02;;;;;;;13.23;8.02;;;3.80;87.90;;;;;;5015577;28;20097;-90
2020/12/06 07:07:43;;;;;;;14.27;9.15;;;3.80;87.90;;;;;;4986241;28;20117;-89
2020/12/06 07:10:11;;;;;;;12.48;8.15;;;3.80;87.90;;;;;;4989264;28;20082;-89
2020/12/06 07:12:57;;;;;;;14.90;9.43;;;3.80;87.90;;;;;;4994672;28;20035;-90
2020/12/06 07:15:30;;;;;;;12.90;8.23;;;3.80;87.90;;;;;;5007515;28;20073;-89
2020/12/06 07:17:56;;;;;;;13.73;8.63;;;3.90;87.90;;;;;;4989199;28;20027;-89
2020/12/06 07:20:24;;;;;;;14.73;8.95;;;3.80;87.90;;;;;;4984619;28;20479;-89
2020/12/06 07:22:54;;;;;;;14.52;9.05;;;3.80;87.90;;;;;;4996739;28;20065;-89
2020/12/06 07:25:30;;;;;;;15.60;8.82;;;3.80;87.90;;;;;;5015402;28;20057;-89
2020/12/06 07:28:04;;;;;;;15.00;9.82;;;3.80;88.00;;;;;;5000125;28;20591;-89
2020/12/06 07:30:33;;;;;;;14.80;8.80;;;3.80;88.00;;;;;;4993110;28;20026;-88
2020/12/06 07:33:03;;;;;;;15.95;10.00;;;3.90;88.00;;;;;;4996315;28;20023;-90
2020/12/06 07:35:34;;;;;;;13.35;8.70;;;3.80;87.90;;;;;;4977283;28;20145;-90
2020/12/06 07:38:05;;;;;;;13.93;8.45;;;3.90;88.00;;;;;;4979187;28;20047;-91
2020/12/06 07:40:34;;;;;;;15.57;9.75;;;3.90;88.00;;;;;;4977246;28;20031;-90
2020/12/06 07:43:21;;;;;;;12.82;8.07;;;3.90;88.00;;;;;;4995342;28;20053;-89
2020/12/06 07:45:49;;;;;;;14.18;8.50;;;3.90;88.00;;;;;;4996171;28;20033;-89
2020/12/06 07:51:38;;;;;;;14.10;8.85;;;3.90;88.10;;;;;;4989898;28;20053;-88
2020/12/06 07:54:04;;;;;;;13.13;8.38;;;3.90;88.00;;;;;;4947982;28;20061;-87
2020/12/06 07:56:30;;;;;;;13.52;8.40;;;3.90;88.10;;;;;;4976481;28;20593;-88
2020/12/06 07:59:05;;;;;;;14.70;8.43;;;3.90;88.10;;;;;;4986159;28;20041;-89
2020/12/06 08:01:31;;;;;;;13.52;8.48;;;3.90;88.10;;;;;;4996679;28;20033;-89
2020/12/06 08:03:58;;;;;;;13.95;9.00;;;3.90;88.10;;;;;;5039742;23;20042;-88
2020/12/06 08:06:27;;;;;;;14.68;8.07;;;3.90;88.20;;;;;;4999219;28;20113;-92
2020/12/06 08:08:59;;;;;;;13.02;8.38;;;3.90;88.20;;;;;;4989510;28;20045;-92
2020/12/06 08:11:32;;;;;;;15.23;9.45;;;3.90;88.20;;;;;;5028836;28;20029;-89
2020/12/06 08:14:10;;;;;;;13.70;8.35;;;3.90;88.20;;;;;;5032782;28;20044;-90
2020/12/06 08:16:54;;;;;;;13.77;8.77;;;3.90;88.20;;;;;;5028348;28;20022;-89
2020/12/06 08:19:48;;;;;;;;;;;;;;;;;;;;;
2020/12/06 08:22:17;;;;;;;14.40;8.73;;;3.90;88.20;;;;;;5006878;28;20015;-90
2020/12/06 08:25:13;;;;;;;13.73;8.50;;;3.90;88.20;;;;;;4999618;28;20042;-89
2020/12/06 08:28:08;;;;;;;13.98;8.70;;;3.90;88.20;;;;;;5001814;28;20025;-90
2020/12/06 08:30:36;;;;;;;11.80;7.47;;;3.90;88.20;;;;;;5017399;28;20033;-90
2020/12/06 08:33:05;;;;;;;14.23;9.05;;;3.90;88.20;;;;;;5031451;28;20026;-90
2020/12/06 08:35:48;;;;;;;13.45;8.35;;;3.90;88.20;;;;;;5004780;28;20030;-89
2020/12/06 08:38:24;;;;;;;15.00;9.18;;;4.00;88.30;;;;;;5032013;28;20121;-90
2020/12/06 08:41:02;;;;;;;15.82;9.10;;;4.00;88.30;;;;;;5005155;28;20031;-89
2020/12/06 08:43:49;;;;;;;14.93;9.30;;;4.00;88.40;;;;;;5024867;28;20114;-90
2020/12/06 08:46:27;;;;;;;14.10;8.75;;;4.00;88.40;;;;;;5029746;28;20467;-88
2020/12/06 08:49:02;;;;;;;14.18;8.93;;;4.00;88.40;;;;;;5023150;28;20548;-89
2020/12/06 08:51:38;;;;;;;13.52;7.97;;;4.00;88.40;;;;;;5008594;28;20109;-90
2020/12/06 08:54:11;;;;;;;14.25;8.30;;;4.00;88.40;;;;;;5032314;28;20125;-89
2020/12/06 08:56:39;;;;;;;14.20;8.75;;;4.00;88.40;;;;;;5011960;28;20463;-90
2020/12/06 08:59:14;;;;;;;13.55;8.82;;;4.00;88.50;;;;;;5013827;28;20021;-90
2020/12/06 09:01:54;;;;;;;14.13;9.48;;;4.10;88.50;;;;;;5018715;28;20033;-90
2020/12/06 09:04:21;;;;;;;13.77;8.85;;;4.10;88.50;;;;;;5022093;28;20038;-89
2020/12/06 09:06:50;;;;;;;15.10;9.88;;;4.10;88.50;;;;;;5014277;28;20044;-89
2020/12/06 09:09:16;;;;;;;14.55;8.93;;;4.10;88.50;;;;;;5014897;28;20483;-89
2020/12/06 09:11:46;;;;;;;13.40;8.32;;;4.10;88.50;;;;;;5000492;28;20062;-89
2020/12/06 09:14:58;;;;;;;15.15;9.73;;;4.10;88.50;;;;;;4992349;28;20022;-89
2020/12/06 09:17:24;;;;;;;14.57;8.98;;;4.10;88.60;;;;;;5025962;28;20046;-89
2020/12/06 09:19:50;;;;;;;17.00;9.98;;;4.20;88.60;;;;;;5016121;28;20030;-90
2020/12/06 09:22:16;;;;;;;16.40;10.20;;;4.20;88.60;;;;;;5018254;28;20030;-93
2020/12/06 09:24:42;;;;;;;15.73;9.52;;;4.20;88.60;;;;;;5019661;28;20022;-93
2020/12/06 09:27:16;;;;;;;14.43;9.55;;;4.20;88.60;;;;;;5026941;28;20120;-92
2020/12/06 09:29:44;;;;;;;14.93;9.57;;;4.20;88.70;;;;;;5038909;28;20022;-89
2020/12/06 09:32:10;;;;;;;17.02;11.05;;;4.20;88.70;;;;;;5021100;28;20101;-93
2020/12/06 09:34:36;;;;;;;15.93;10.13;;;4.30;88.70;;;;;;5030242;28;20050;-92
2020/12/06 09:37:10;;;;;;;16.65;9.75;;;4.30;88.80;;;;;;4991873;28;20124;-92
2020/12/06 09:39:39;;;;;;;13.13;8.90;;;4.30;88.80;;;;;;5036344;28;20022;-88
2020/12/06 09:42:11;;;;;;;14.60;9.50;;;4.40;88.90;;;;;;5040732;28;20021;-88
2020/12/06 09:44:49;;;;;;;15.05;9.57;;;4.40;88.80;;;;;;5036762;28;20045;-88
2020/12/06 09:47:21;;;;;;;18.83;10.98;;;4.50;88.90;;;;;;5011388;28;20045;-88
2020/12/06 09:50:08;;;;;;;15.77;10.35;;;4.50;88.80;;;;;;5028068;28;20018;-87
2020/12/06 09:52:36;;;;;;;16.73;10.68;;;4.50;88.80;;;;;;4984819;28;20030;-88
2020/12/06 09:55:21;;;;;;;16.15;10.25;;;4.60;88.80;;;;;;5013462;28;20033;-88
2020/12/06 09:58:05;;;;;;;16.10;10.63;;;4.60;88.80;;;;;;5020799;28;20022;-88
2020/12/06 10:00:36;;;;;;;17.95;11.13;;;4.60;88.90;;;;;;5016243;28;20033;-87
2020/12/06 10:03:08;;;;;;;17.40;11.05;;;4.60;88.80;;;;;;4996783;28;20499;-87
2020/12/06 10:05:34;;;;;;;17.23;10.60;;;4.60;88.80;;;;;;5003320;28;20587;-88
2020/12/06 10:08:01;;;;;;;15.75;10.10;;;4.70;88.80;;;;;;5013491;28;20110;-87
2020/12/06 10:10:27;;;;;;;17.75;10.77;;;4.70;88.80;;;;;;4993091;28;20030;-87
2020/12/06 10:12:53;;;;;;;16.80;10.40;;;4.70;88.80;;;;;;5008221;28;20033;-87
2020/12/06 10:15:20;;;;;;;17.95;11.55;;;4.80;88.90;;;;;;5004403;28;20038;-88
2020/12/06 10:17:48;;;;;;;16.70;11.05;;;4.80;88.90;;;;;;5037224;28;20044;-87
2020/12/06 10:20:20;;;;;;;17.33;10.88;;;4.80;88.80;;;;;;5013508;28;20037;-87
2020/12/06 10:22:47;;;;;;;16.33;10.00;;;4.90;88.90;;;;;;5001551;28;20041;-87
2020/12/06 10:25:15;;;;;;;14.93;9.80;;;4.90;88.80;;;;;;5010869;28;20384;-87
2020/12/06 10:27:41;;;;;;;16.70;11.07;;;4.90;88.80;;;;;;5028589;28;20087;-87
2020/12/06 10:30:07;;;;;;;17.05;11.18;;;5.00;88.80;;;;;;4977473;28;20071;-87
2020/12/06 10:32:33;;;;;;;16.40;10.93;;;5.00;88.80;;;;;;4998902;28;20026;-87
2020/12/06 10:34:59;;;;;;;15.50;10.02;;;5.00;88.80;;;;;;5014171;28;20379;-87
2020/12/06 10:37:34;;;;;;;16.08;10.80;;;5.10;88.80;;;;;;5019150;28;20025;-86
2020/12/06 10:40:00;;;;;;;14.77;9.73;;;5.10;88.80;;;;;;4995737;28;20468;-86
2020/12/06 10:42:33;;;;;;;16.05;9.93;;;5.10;88.80;;;;;;5012427;28;20049;-87
2020/12/06 10:45:00;;;;;;;15.82;10.27;;;5.20;88.80;;;;;;5015144;28;20026;-87
2020/12/06 10:47:26;;;;;;;14.48;9.27;;;5.20;88.80;;;;;;5010871;28;20046;-87
2020/12/06 10:49:53;;;;;;;14.55;9.70;;;5.20;88.80;;;;;;5001003;28;20077;-85
2020/12/06 10:52:36;;;;;;;17.42;10.27;;;5.30;88.90;;;;;;4982901;28;20045;-86
2020/12/06 10:55:39;;;;;;;15.20;10.10;;;5.30;88.80;;;;;;5018405;28;20451;-86
2020/12/06 10:58:17;;;;;;;16.63;11.48;;;5.30;88.80;;;;;;5009040;28;20042;-86
2020/12/06 11:00:42;;;;;;;18.15;13.50;;;5.40;88.60;;;;;;5002722;28;20160;-88
2020/12/06 11:03:24;;;;;;;18.42;11.30;;;5.40;88.50;;;;;;4983937;28;20118;-88
2020/12/06 11:06:52;;;;;;;18.25;11.88;;;5.40;88.50;;;;;;5001898;28;20121;-88
2020/12/06 11:09:19;;;;;;;16.50;11.15;;;5.40;88.50;;;;;;5006186;28;20042;-87
2020/12/06 11:11:51;;;;;;;17.13;11.32;;;5.50;88.50;;;;;;5015440;28;20378;-86
2020/12/06 11:14:18;;;;;;;16.27;10.75;;;5.50;88.50;;;;;;5001897;28;20057;-86
2020/12/06 11:17:02;;;;;;;16.27;10.77;;;5.50;88.50;;;;;;4989897;28;20530;-86
2020/12/06 11:19:31;;;;;;;14.20;9.65;;;5.60;88.60;;;;;;4996836;28;20019;-87
2020/12/06 11:22:20;;;;;;;15.75;11.18;;;5.60;88.50;;;;;;5007301;28;20106;-87
2020/12/06 11:25:21;;;;;;;14.73;10.35;;;5.60;88.50;;;;;;5008030;28;20096;-87
2020/12/06 11:27:50;;;;;;;14.13;9.77;;;5.70;88.60;;;;;;5010215;28;20022;-86
2020/12/06 11:30:19;;;;;;;14.77;10.25;;;5.70;88.50;;;;;;4998443;28;20080;-87
2020/12/06 11:32:48;;;;;;;16.15;10.00;;;5.70;88.60;;;;;;5005156;28;20018;-86
2020/12/06 11:35:17;;;;;;;18.17;10.90;;;5.70;88.60;;;;;;4987791;28;20022;-86
2020/12/06 11:37:48;;;;;;;14.82;10.13;;;5.80;88.60;;;;;;5004888;28;20039;-88
2020/12/06 11:40:14;;;;;;;14.18;9.40;;;5.80;88.60;;;;;;5023454;28;20049;-91
2020/12/06 11:42:43;;;;;;;14.52;9.02;;;5.80;88.70;;;;;;5020120;28;20030;-91
2020/12/06 11:45:09;;;;;;;15.35;9.88;;;5.80;88.70;;;;;;5009118;28;20204;-91
2020/12/06 11:47:43;;;;;;;14.27;9.50;;;5.90;88.70;;;;;;5010849;28;20025;-90
2020/12/06 11:50:18;;;;;;;14.40;9.75;;;5.90;88.70;;;;;;5003432;28;20202;-90
2020/12/06 11:53:16;;;;;;;16.20;10.43;;;5.90;88.70;;;;;;5025266;28;20033;-90
2020/12/06 11:56:29;;;;;;;13.25;8.80;;;5.90;88.70;;;;;;5040152;28;20026;-90
2020/12/06 11:59:06;;;;;;;14.80;10.02;;;6.00;88.70;;;;;;5046687;28;20025;-90
2020/12/06 12:02:03;;;;;;;13.48;9.00;;;5.90;88.60;;;;;;5011119;28;20019;-87
2020/12/06 12:04:29;;;;;;;14.07;9.30;;;6.00;88.70;;;;;;5036951;28;20092;-87
2020/12/06 12:06:54;;;;;;;14.98;9.45;;;6.00;88.60;;;;;;5039588;28;20026;-86
2020/12/06 12:09:32;;;;;;;14.50;10.00;;;6.10;88.70;;;;;;5008196;28;20026;-85
2020/12/06 12:12:06;;;;;;;13.70;9.07;;;6.00;88.70;;;;;;5038127;28;20177;-91
2020/12/06 12:15:32;;;;;;;14.73;9.45;;;6.10;88.80;;;;;;5012114;28;20075;-91
2020/12/06 12:18:05;;;;;;;14.32;9.25;;;6.10;88.70;;;;;;4981100;28;20475;-91
2020/12/06 12:20:31;;;;;;;13.88;8.82;;;6.10;88.70;;;;;;4989481;28;20388;-91
2020/12/06 12:22:57;;;;;;;13.68;8.77;;;6.10;88.70;;;;;;5015069;28;20033;-90
2020/12/06 12:25:25;;;;;;;15.52;9.70;;;6.20;88.80;;;;;;5035239;28;20026;-87
2020/12/06 12:27:51;;;;;;;14.27;9.10;;;6.20;88.70;;;;;;5024246;28;20035;-86
2020/12/06 12:30:17;;;;;;;12.27;8.23;;;6.20;89.30;;;;;;4996107;28;20018;-85
2020/12/06 12:32:43;;;;;;;13.65;9.18;;;6.20;88.70;;;;;;4995705;28;20037;-86
2020/12/06 12:35:08;;;;;;;14.10;9.13;;;6.20;88.60;;;;;;5007523;28;20041;-86
2020/12/06 12:37:52;;;;;;;14.02;9.85;;;6.30;88.70;;;;;;5035935;28;20030;-87
2020/12/06 12:40:21;;;;;;;13.13;8.48;;;6.30;88.60;;;;;;4989077;28;20113;-87
2020/12/06 12:43:13;;;;;;;13.10;9.02;;;6.30;88.60;;;;;;5008190;28;20033;-86
2020/12/06 12:49:33;;;;;;;14.20;9.20;;;6.40;88.60;;;;;;4981945;28;20077;-87
2020/12/06 12:52:14;;;;;;;14.50;9.57;;;6.30;88.40;;;;;;4993641;28;20069;-87
2020/12/06 12:54:58;;;;;;;15.13;9.93;;;6.40;88.40;;;;;;5019885;28;20030;-87
2020/12/06 12:57:23;;;;;;;17.13;10.85;;;6.40;88.40;;;;;;5023899;28;20376;-87
2020/12/06 12:59:52;;;;;;;15.93;10.70;;;6.40;88.20;;;;;;4998492;28;20042;-87
2020/12/06 13:02:33;;;;;;;14.73;10.75;;;6.40;88.20;;;;;;5014117;28;20124;-87
2020/12/06 13:05:31;;;;;;;14.40;9.75;;;6.40;88.20;;;;;;4998575;28;20041;-87
2020/12/06 13:07:59;;;;;;;14.77;9.70;;;6.50;88.20;;;;;;5016426;28;20092;-86
2020/12/06 13:10:32;;;;;;;15.25;10.25;;;6.50;88.10;;;;;;5010280;28;20023;-87
2020/12/06 13:12:58;;;;;;;13.10;9.02;;;6.50;88.00;;;;;;4991174;28;20079;-89